sensor_id;sensor_type;location;lat;lon;timestamp;temperature;humidity
46976;DHT22;32724;51.094;6.996;2024-03-02T00:00:19;7.30;99.90
46976;DHT22;32724;51.094;6.996;2024-03-02T00:02:48;7.30;99.90
46976;DHT22;32724;51.094;6.996;2024-03-02T00:05:19;7.30;99.90
46976;DHT22;32724;51.094;6.996;2024-03-02T00:07:46;7.30;99.90
46976;DHT22;32724;51.094;6.996;2024-03-02T00:10:16;7.30;99.90
46976;DHT22;32724;51.094;6.996;2024-03-02T00:12:47;7.40;99.90
46976;DHT22;32724;51.094;6.996;2024-03-02T00:18:01;7.40;99.90
46976;DHT22;32724;51.094;6.996;2024-03-02T00:20:26;7.40;99.90
46976;DHT22;32724;51.094;6.996;2024-03-02T00:23:02;7.40;99.90
46976;DHT22;32724;51.094;6.996;2024-03-02T00:25:44;7.30;99.90
46976;DHT22;32724;51.094;6.996;2024-03-02T00:28:17;7.40;99.90
46976;DHT22;32724;51.094;6.996;2024-03-02T00:33:10;7.10;99.90
46976;DHT22;32724;51.094;6.996;2024-03-02T00:35:36;7.10;99.90
46976;DHT22;32724;51.094;6.996;2024-03-02T00:38:05;7.20;99.90
46976;DHT22;32724;51.094;6.996;2024-03-02T00:40:31;7.20;99.90
46976;DHT22;32724;51.094;6.996;2024-03-02T00:42:57;7.30;99.90
46976;DHT22;32724;51.094;6.996;2024-03-02T00:45:23;7.40;99.90
46976;DHT22;32724;51.094;6.996;2024-03-02T00:47:50;7.60;99.90
46976;DHT22;32724;51.094;6.996;2024-03-02T00:50:16;7.60;99.90
46976;DHT22;32724;51.094;6.996;2024-03-02T00:52:42;7.60;99.90
46976;DHT22;32724;51.094;6.996;2024-03-02T00:55:09;7.70;99.90
46976;DHT22;32724;51.094;6.996;2024-03-02T00:57:35;7.70;99.90
46976;DHT22;32724;51.094;6.996;2024-03-02T01:00:00;7.80;99.90
46976;DHT22;32724;51.094;6.996;2024-03-02T01:02:26;7.90;99.90
46976;DHT22;32724;51.094;6.996;2024-03-02T01:04:53;7.90;99.90
46976;DHT22;32724;51.094;6.996;2024-03-02T01:07:18;7.90;99.90
46976;DHT22;32724;51.094;6.996;2024-03-02T01:09:44;7.90;99.90
46976;DHT22;32724;51.094;6.996;2024-03-02T01:12:10;7.90;99.90
46976;DHT22;32724;51.094;6.996;2024-03-02T01:14:36;8.00;99.90
46976;DHT22;32724;51.094;6.996;2024-03-02T01:17:01;8.00;99.90
46976;DHT22;32724;51.094;6.996;2024-03-02T01:19:29;8.00;99.90
46976;DHT22;32724;51.094;6.996;2024-03-02T01:21:55;8.00;99.90
46976;DHT22;32724;51.094;6.996;2024-03-02T01:24:21;8.00;99.90
46976;DHT22;32724;51.094;6.996;2024-03-02T01:26:46;8.00;99.90
46976;DHT22;32724;51.094;6.996;2024-03-02T01:29:12;8.00;99.90
46976;DHT22;32724;51.094;6.996;2024-03-02T01:31:37;7.90;99.90
46976;DHT22;32724;51.094;6.996;2024-03-02T01:34:05;7.80;99.90
46976;DHT22;32724;51.094;6.996;2024-03-02T01:36:30;7.70;99.90
46976;DHT22;32724;51.094;6.996;2024-03-02T01:38:56;7.70;99.90
46976;DHT22;32724;51.094;6.996;2024-03-02T01:41:21;7.70;99.90
46976;DHT22;32724;51.094;6.996;2024-03-02T01:43:47;7.60;99.90
46976;DHT22;32724;51.094;6.996;2024-03-02T01:46:13;7.60;99.90
46976;DHT22;32724;51.094;6.996;2024-03-02T01:48:39;7.60;99.90
46976;DHT22;32724;51.094;6.996;2024-03-02T01:51:04;7.60;99.90
46976;DHT22;32724;51.094;6.996;2024-03-02T01:53:31;7.60;99.90
46976;DHT22;32724;51.094;6.996;2024-03-02T01:55:57;7.50;99.90
46976;DHT22;32724;51.094;6.996;2024-03-02T01:58:23;7.10;99.90
46976;DHT22;32724;51.094;6.996;2024-03-02T02:00:48;7.20;99.90
46976;DHT22;32724;51.094;6.996;2024-03-02T02:03:15;7.30;99.90
46976;DHT22;32724;51.094;6.996;2024-03-02T02:05:42;7.40;99.90
46976;DHT22;32724;51.094;6.996;2024-03-02T02:08:08;7.50;99.90
46976;DHT22;32724;51.094;6.996;2024-03-02T02:10:33;7.60;99.90
46976;DHT22;32724;51.094;6.996;2024-03-02T02:13:00;7.60;99.90
46976;DHT22;32724;51.094;6.996;2024-03-02T02:15:31;7.60;99.90
46976;DHT22;32724;51.094;6.996;2024-03-02T02:17:58;7.70;99.90
46976;DHT22;32724;51.094;6.996;2024-03-02T02:20:24;7.70;99.90
46976;DHT22;32724;51.094;6.996;2024-03-02T02:25:22;7.70;99.90
46976;DHT22;32724;51.094;6.996;2024-03-02T02:27:48;7.60;99.90
46976;DHT22;32724;51.094;6.996;2024-03-02T02:30:13;7.80;99.90
46976;DHT22;32724;51.094;6.996;2024-03-02T02:32:43;7.90;99.90
46976;DHT22;32724;51.094;6.996;2024-03-02T02:35:09;8.10;99.90
46976;DHT22;32724;51.094;6.996;2024-03-02T02:37:34;8.20;99.90
46976;DHT22;32724;51.094;6.996;2024-03-02T02:40:00;8.30;99.90
46976;DHT22;32724;51.094;6.996;2024-03-02T02:42:25;8.20;99.90
46976;DHT22;32724;51.094;6.996;2024-03-02T02:44:51;8.20;99.90
46976;DHT22;32724;51.094;6.996;2024-03-02T02:47:17;8.20;99.90
46976;DHT22;32724;51.094;6.996;2024-03-02T02:49:42;8.20;99.90
46976;DHT22;32724;51.094;6.996;2024-03-02T02:52:08;8.20;99.90
46976;DHT22;32724;51.094;6.996;2024-03-02T02:54:33;7.50;99.90
46976;DHT22;32724;51.094;6.996;2024-03-02T02:56:59;7.50;99.90
46976;DHT22;32724;51.094;6.996;2024-03-02T02:59:25;7.40;99.90
46976;DHT22;32724;51.094;6.996;2024-03-02T03:01:51;7.40;99.90
46976;DHT22;32724;51.094;6.996;2024-03-02T03:04:17;7.70;99.90
46976;DHT22;32724;51.094;6.996;2024-03-02T03:06:43;7.60;99.90
46976;DHT22;32724;51.094;6.996;2024-03-02T03:09:09;7.60;99.90
46976;DHT22;32724;51.094;6.996;2024-03-02T03:11:36;7.70;99.90
46976;DHT22;32724;51.094;6.996;2024-03-02T03:14:02;7.60;99.90
46976;DHT22;32724;51.094;6.996;2024-03-02T03:16:27;7.60;99.90
46976;DHT22;32724;51.094;6.996;2024-03-02T03:18:53;7.60;99.90
46976;DHT22;32724;51.094;6.996;2024-03-02T03:21:19;7.60;99.90
46976;DHT22;32724;51.094;6.996;2024-03-02T03:23:44;7.60;99.90
46976;DHT22;32724;51.094;6.996;2024-03-02T03:26:10;7.50;99.90
46976;DHT22;32724;51.094;6.996;2024-03-02T03:28:36;7.50;99.90
46976;DHT22;32724;51.094;6.996;2024-03-02T03:31:01;7.70;99.90
46976;DHT22;32724;51.094;6.996;2024-03-02T03:33:27;7.90;99.90
46976;DHT22;32724;51.094;6.996;2024-03-02T03:35:53;8.00;99.90
46976;DHT22;32724;51.094;6.996;2024-03-02T03:38:18;8.10;99.90
46976;DHT22;32724;51.094;6.996;2024-03-02T03:40:44;8.10;99.90
46976;DHT22;32724;51.094;6.996;2024-03-02T03:43:10;8.10;99.90
46976;DHT22;32724;51.094;6.996;2024-03-02T03:45:36;8.10;99.90
46976;DHT22;32724;51.094;6.996;2024-03-02T03:48:02;8.10;99.90
46976;DHT22;32724;51.094;6.996;2024-03-02T03:50:28;8.00;99.90
46976;DHT22;32724;51.094;6.996;2024-03-02T03:52:53;7.60;99.90
46976;DHT22;32724;51.094;6.996;2024-03-02T03:55:19;7.60;99.90
46976;DHT22;32724;51.094;6.996;2024-03-02T03:57:44;7.60;99.90
46976;DHT22;32724;51.094;6.996;2024-03-02T04:00:10;7.60;99.90
46976;DHT22;32724;51.094;6.996;2024-03-02T04:02:37;7.60;99.90
46976;DHT22;32724;51.094;6.996;2024-03-02T04:05:03;7.50;99.90
46976;DHT22;32724;51.094;6.996;2024-03-02T04:07:33;7.60;99.90
46976;DHT22;32724;51.094;6.996;2024-03-02T04:09:58;7.60;99.90
46976;DHT22;32724;51.094;6.996;2024-03-02T04:12:24;7.60;99.90
46976;DHT22;32724;51.094;6.996;2024-03-02T04:14:49;7.50;99.90
46976;DHT22;32724;51.094;6.996;2024-03-02T04:17:15;7.50;99.90
46976;DHT22;32724;51.094;6.996;2024-03-02T04:19:40;7.40;99.90
46976;DHT22;32724;51.094;6.996;2024-03-02T04:22:06;7.20;99.90
46976;DHT22;32724;51.094;6.996;2024-03-02T04:24:32;7.30;99.90
46976;DHT22;32724;51.094;6.996;2024-03-02T04:26:57;7.50;99.90
46976;DHT22;32724;51.094;6.996;2024-03-02T04:29:23;7.70;99.90
46976;DHT22;32724;51.094;6.996;2024-03-02T04:31:48;7.30;99.90
46976;DHT22;32724;51.094;6.996;2024-03-02T04:34:14;7.30;99.90
46976;DHT22;32724;51.094;6.996;2024-03-02T04:36:39;7.30;99.90
46976;DHT22;32724;51.094;6.996;2024-03-02T04:39:05;7.30;99.90
46976;DHT22;32724;51.094;6.996;2024-03-02T04:41:35;7.30;99.90
46976;DHT22;32724;51.094;6.996;2024-03-02T04:44:00;7.30;99.90
46976;DHT22;32724;51.094;6.996;2024-03-02T04:46:26;7.30;99.90
46976;DHT22;32724;51.094;6.996;2024-03-02T04:48:51;7.40;99.90
46976;DHT22;32724;51.094;6.996;2024-03-02T04:51:20;7.40;99.90
46976;DHT22;32724;51.094;6.996;2024-03-02T04:53:46;7.20;99.90
46976;DHT22;32724;51.094;6.996;2024-03-02T04:56:12;7.00;99.90
46976;DHT22;32724;51.094;6.996;2024-03-02T04:58:56;6.80;99.90
46976;DHT22;32724;51.094;6.996;2024-03-02T05:01:21;6.70;99.90
46976;DHT22;32724;51.094;6.996;2024-03-02T05:03:47;6.60;99.90
46976;DHT22;32724;51.094;6.996;2024-03-02T05:06:12;6.60;99.90
46976;DHT22;32724;51.094;6.996;2024-03-02T05:08:38;6.70;99.90
46976;DHT22;32724;51.094;6.996;2024-03-02T05:11:03;6.80;99.90
46976;DHT22;32724;51.094;6.996;2024-03-02T05:13:47;6.70;99.90
46976;DHT22;32724;51.094;6.996;2024-03-02T05:16:13;6.60;99.90
46976;DHT22;32724;51.094;6.996;2024-03-02T05:18:39;6.70;99.90
46976;DHT22;32724;51.094;6.996;2024-03-02T05:21:05;6.70;99.90
46976;DHT22;32724;51.094;6.996;2024-03-02T05:23:30;6.80;99.90
46976;DHT22;32724;51.094;6.996;2024-03-02T05:25:56;6.70;99.90
46976;DHT22;32724;51.094;6.996;2024-03-02T05:28:21;6.60;99.90
46976;DHT22;32724;51.094;6.996;2024-03-02T05:30:47;6.50;99.90
46976;DHT22;32724;51.094;6.996;2024-03-02T05:33:13;6.60;99.90
46976;DHT22;32724;51.094;6.996;2024-03-02T05:35:38;6.70;99.90
46976;DHT22;32724;51.094;6.996;2024-03-02T05:38:04;6.80;99.90
46976;DHT22;32724;51.094;6.996;2024-03-02T05:40:29;6.80;99.90
46976;DHT22;32724;51.094;6.996;2024-03-02T05:42:55;6.70;99.90
46976;DHT22;32724;51.094;6.996;2024-03-02T05:45:20;6.70;99.90
46976;DHT22;32724;51.094;6.996;2024-03-02T05:47:46;6.70;99.90
46976;DHT22;32724;51.094;6.996;2024-03-02T05:50:11;6.70;99.90
46976;DHT22;32724;51.094;6.996;2024-03-02T05:52:37;6.70;99.90
46976;DHT22;32724;51.094;6.996;2024-03-02T05:55:03;6.30;99.90
46976;DHT22;32724;51.094;6.996;2024-03-02T05:57:29;6.30;99.90
46976;DHT22;32724;51.094;6.996;2024-03-02T06:00:11;6.20;99.90
46976;DHT22;32724;51.094;6.996;2024-03-02T06:02:39;6.20;99.90
46976;DHT22;32724;51.094;6.996;2024-03-02T06:05:06;6.20;99.90
46976;DHT22;32724;51.094;6.996;2024-03-02T06:07:32;6.20;99.90
46976;DHT22;32724;51.094;6.996;2024-03-02T06:09:58;6.30;99.90
46976;DHT22;32724;51.094;6.996;2024-03-02T06:12:23;6.30;99.90
46976;DHT22;32724;51.094;6.996;2024-03-02T06:14:49;6.30;99.90
46976;DHT22;32724;51.094;6.996;2024-03-02T06:17:15;6.30;99.90
46976;DHT22;32724;51.094;6.996;2024-03-02T06:19:40;6.30;99.90
46976;DHT22;32724;51.094;6.996;2024-03-02T06:22:06;6.40;99.90
46976;DHT22;32724;51.094;6.996;2024-03-02T06:24:31;6.50;99.90
46976;DHT22;32724;51.094;6.996;2024-03-02T06:26:57;6.50;99.90
46976;DHT22;32724;51.094;6.996;2024-03-02T06:29:22;6.50;99.90
46976;DHT22;32724;51.094;6.996;2024-03-02T06:31:48;6.30;99.90
46976;DHT22;32724;51.094;6.996;2024-03-02T06:34:13;5.90;99.90
46976;DHT22;32724;51.094;6.996;2024-03-02T06:36:39;5.80;99.90
46976;DHT22;32724;51.094;6.996;2024-03-02T06:39:05;6.00;99.90
46976;DHT22;32724;51.094;6.996;2024-03-02T06:41:31;6.00;99.90
46976;DHT22;32724;51.094;6.996;2024-03-02T06:43:57;6.30;99.90
46976;DHT22;32724;51.094;6.996;2024-03-02T06:46:25;6.50;99.90
46976;DHT22;32724;51.094;6.996;2024-03-02T06:48:51;6.60;99.90
46976;DHT22;32724;51.094;6.996;2024-03-02T06:51:16;6.70;99.90
46976;DHT22;32724;51.094;6.996;2024-03-02T06:53:42;6.80;99.90
46976;DHT22;32724;51.094;6.996;2024-03-02T06:56:07;6.90;99.90
46976;DHT22;32724;51.094;6.996;2024-03-02T06:58:33;6.90;99.90
46976;DHT22;32724;51.094;6.996;2024-03-02T07:00:59;7.00;99.90
46976;DHT22;32724;51.094;6.996;2024-03-02T07:03:26;7.10;99.90
46976;DHT22;32724;51.094;6.996;2024-03-02T07:05:51;6.70;99.90
46976;DHT22;32724;51.094;6.996;2024-03-02T07:08:17;6.60;99.90
46976;DHT22;32724;51.094;6.996;2024-03-02T07:10:42;6.70;99.90
46976;DHT22;32724;51.094;6.996;2024-03-02T07:13:08;6.90;99.90
46976;DHT22;32724;51.094;6.996;2024-03-02T07:15:33;7.10;99.90
46976;DHT22;32724;51.094;6.996;2024-03-02T07:18:02;7.10;99.90
46976;DHT22;32724;51.094;6.996;2024-03-02T07:20:28;7.30;99.90
46976;DHT22;32724;51.094;6.996;2024-03-02T07:22:53;7.40;99.90
46976;DHT22;32724;51.094;6.996;2024-03-02T07:25:19;7.40;99.90
46976;DHT22;32724;51.094;6.996;2024-03-02T07:27:45;7.40;99.90
46976;DHT22;32724;51.094;6.996;2024-03-02T07:30:14;7.40;99.90
46976;DHT22;32724;51.094;6.996;2024-03-02T07:32:41;7.60;99.90
46976;DHT22;32724;51.094;6.996;2024-03-02T07:35:13;7.70;99.90
46976;DHT22;32724;51.094;6.996;2024-03-02T07:37:40;7.70;99.90
46976;DHT22;32724;51.094;6.996;2024-03-02T07:40:06;7.90;99.90
46976;DHT22;32724;51.094;6.996;2024-03-02T07:42:35;8.00;99.90
46976;DHT22;32724;51.094;6.996;2024-03-02T07:45:00;8.10;99.90
46976;DHT22;32724;51.094;6.996;2024-03-02T07:47:26;8.40;99.90
46976;DHT22;32724;51.094;6.996;2024-03-02T07:49:51;8.70;99.90
46976;DHT22;32724;51.094;6.996;2024-03-02T07:52:17;9.00;99.90
46976;DHT22;32724;51.094;6.996;2024-03-02T07:54:42;9.00;99.90
46976;DHT22;32724;51.094;6.996;2024-03-02T07:57:08;8.80;99.90
46976;DHT22;32724;51.094;6.996;2024-03-02T07:59:34;8.80;99.90
46976;DHT22;32724;51.094;6.996;2024-03-02T08:01:59;8.90;99.90
46976;DHT22;32724;51.094;6.996;2024-03-02T08:04:26;9.00;99.90
46976;DHT22;32724;51.094;6.996;2024-03-02T08:06:51;9.00;99.90
46976;DHT22;32724;51.094;6.996;2024-03-02T08:09:17;9.10;99.90
46976;DHT22;32724;51.094;6.996;2024-03-02T08:11:42;8.60;99.90
46976;DHT22;32724;51.094;6.996;2024-03-02T08:14:08;8.50;99.90
46976;DHT22;32724;51.094;6.996;2024-03-02T08:16:33;8.50;99.90
46976;DHT22;32724;51.094;6.996;2024-03-02T08:18:59;8.80;99.90
46976;DHT22;32724;51.094;6.996;2024-03-02T08:21:25;8.90;99.90
46976;DHT22;32724;51.094;6.996;2024-03-02T08:23:51;9.10;99.90
46976;DHT22;32724;51.094;6.996;2024-03-02T08:26:17;9.10;99.90
46976;DHT22;32724;51.094;6.996;2024-03-02T08:28:42;9.30;99.90
46976;DHT22;32724;51.094;6.996;2024-03-02T08:31:08;9.40;99.90
46976;DHT22;32724;51.094;6.996;2024-03-02T08:33:34;9.50;99.90
46976;DHT22;32724;51.094;6.996;2024-03-02T08:36:00;9.60;99.90
46976;DHT22;32724;51.094;6.996;2024-03-02T08:38:26;9.70;99.90
46976;DHT22;32724;51.094;6.996;2024-03-02T08:40:52;9.90;99.90
46976;DHT22;32724;51.094;6.996;2024-03-02T08:43:19;10.40;99.90
46976;DHT22;32724;51.094;6.996;2024-03-02T08:45:45;10.60;99.90
46976;DHT22;32724;51.094;6.996;2024-03-02T08:48:10;10.70;99.90
46976;DHT22;32724;51.094;6.996;2024-03-02T08:50:36;10.70;99.90
46976;DHT22;32724;51.094;6.996;2024-03-02T08:53:03;10.90;99.90
46976;DHT22;32724;51.094;6.996;2024-03-02T08:55:29;10.90;99.90
46976;DHT22;32724;51.094;6.996;2024-03-02T08:57:55;10.90;99.90
46976;DHT22;32724;51.094;6.996;2024-03-02T09:00:20;10.90;99.90
46976;DHT22;32724;51.094;6.996;2024-03-02T09:02:46;11.00;99.90
46976;DHT22;32724;51.094;6.996;2024-03-02T09:05:12;11.00;99.90
46976;DHT22;32724;51.094;6.996;2024-03-02T09:07:37;10.70;99.90
46976;DHT22;32724;51.094;6.996;2024-03-02T09:10:05;10.40;99.90
46976;DHT22;32724;51.094;6.996;2024-03-02T09:12:31;10.40;99.90
46976;DHT22;32724;51.094;6.996;2024-03-02T09:14:57;10.60;99.90
46976;DHT22;32724;51.094;6.996;2024-03-02T09:17:23;10.80;99.90
46976;DHT22;32724;51.094;6.996;2024-03-02T09:19:49;10.80;99.90
46976;DHT22;32724;51.094;6.996;2024-03-02T09:22:18;11.00;99.90
46976;DHT22;32724;51.094;6.996;2024-03-02T09:24:44;11.10;99.90
46976;DHT22;32724;51.094;6.996;2024-03-02T09:27:10;11.10;99.90
46976;DHT22;32724;51.094;6.996;2024-03-02T09:29:36;11.50;99.90
46976;DHT22;32724;51.094;6.996;2024-03-02T09:32:01;11.40;99.90
46976;DHT22;32724;51.094;6.996;2024-03-02T09:34:27;11.40;99.90
46976;DHT22;32724;51.094;6.996;2024-03-02T09:36:53;11.80;99.90
46976;DHT22;32724;51.094;6.996;2024-03-02T09:39:18;12.00;99.90
46976;DHT22;32724;51.094;6.996;2024-03-02T09:41:44;12.20;99.90
46976;DHT22;32724;51.094;6.996;2024-03-02T09:44:10;12.20;99.90
46976;DHT22;32724;51.094;6.996;2024-03-02T09:46:36;12.40;99.90
46976;DHT22;32724;51.094;6.996;2024-03-02T09:49:02;12.50;99.90
46976;DHT22;32724;51.094;6.996;2024-03-02T09:51:28;12.60;99.90
46976;DHT22;32724;51.094;6.996;2024-03-02T09:53:55;12.60;99.90
46976;DHT22;32724;51.094;6.996;2024-03-02T09:56:21;12.50;99.90
46976;DHT22;32724;51.094;6.996;2024-03-02T09:58:47;12.50;99.90
46976;DHT22;32724;51.094;6.996;2024-03-02T10:01:13;12.50;99.90
46976;DHT22;32724;51.094;6.996;2024-03-02T10:03:39;12.50;99.90
46976;DHT22;32724;51.094;6.996;2024-03-02T10:06:31;12.50;99.90
46976;DHT22;32724;51.094;6.996;2024-03-02T10:08:56;12.00;99.90
46976;DHT22;32724;51.094;6.996;2024-03-02T10:11:32;11.80;99.90
46976;DHT22;32724;51.094;6.996;2024-03-02T10:14:06;11.80;99.90
46976;DHT22;32724;51.094;6.996;2024-03-02T10:16:37;11.80;99.90
46976;DHT22;32724;51.094;6.996;2024-03-02T10:19:20;11.80;99.90
46976;DHT22;32724;51.094;6.996;2024-03-02T10:21:55;11.80;99.90
46976;DHT22;32724;51.094;6.996;2024-03-02T10:24:22;12.00;99.90
46976;DHT22;32724;51.094;6.996;2024-03-02T10:26:48;12.30;99.90
46976;DHT22;32724;51.094;6.996;2024-03-02T10:29:14;12.50;99.90
46976;DHT22;32724;51.094;6.996;2024-03-02T10:31:42;12.60;99.90
46976;DHT22;32724;51.094;6.996;2024-03-02T10:34:10;12.70;99.90
46976;DHT22;32724;51.094;6.996;2024-03-02T10:36:36;12.80;99.90
46976;DHT22;32724;51.094;6.996;2024-03-02T10:39:03;12.80;99.90
46976;DHT22;32724;51.094;6.996;2024-03-02T10:41:35;12.80;99.90
46976;DHT22;32724;51.094;6.996;2024-03-02T10:44:09;12.90;99.90
46976;DHT22;32724;51.094;6.996;2024-03-02T10:46:36;13.00;99.90
46976;DHT22;32724;51.094;6.996;2024-03-02T10:49:04;12.90;99.90
46976;DHT22;32724;51.094;6.996;2024-03-02T10:51:31;12.90;99.90
46976;DHT22;32724;51.094;6.996;2024-03-02T10:53:58;12.90;99.90
46976;DHT22;32724;51.094;6.996;2024-03-02T10:56:34;13.00;99.90
46976;DHT22;32724;51.094;6.996;2024-03-02T10:59:18;13.40;99.90
46976;DHT22;32724;51.094;6.996;2024-03-02T11:01:47;13.40;99.90
46976;DHT22;32724;51.094;6.996;2024-03-02T11:04:16;13.50;99.90
46976;DHT22;32724;51.094;6.996;2024-03-02T11:06:48;13.50;99.90
46976;DHT22;32724;51.094;6.996;2024-03-02T11:09:14;13.50;99.90
46976;DHT22;32724;51.094;6.996;2024-03-02T11:11:43;13.70;99.90
46976;DHT22;32724;51.094;6.996;2024-03-02T11:14:14;13.30;99.90
46976;DHT22;32724;51.094;6.996;2024-03-02T11:16:41;13.00;99.90
46976;DHT22;32724;51.094;6.996;2024-03-02T11:19:13;13.10;99.90
46976;DHT22;32724;51.094;6.996;2024-03-02T11:21:39;13.00;99.90
46976;DHT22;32724;51.094;6.996;2024-03-02T11:27:14;13.40;99.90
46976;DHT22;32724;51.094;6.996;2024-03-02T11:30:00;13.40;99.90
46976;DHT22;32724;51.094;6.996;2024-03-02T11:32:25;13.70;99.90
46976;DHT22;32724;51.094;6.996;2024-03-02T11:34:51;13.90;99.90
46976;DHT22;32724;51.094;6.996;2024-03-02T11:37:18;13.80;99.90
46976;DHT22;32724;51.094;6.996;2024-03-02T11:39:45;13.90;99.90
46976;DHT22;32724;51.094;6.996;2024-03-02T11:42:12;13.80;99.90
46976;DHT22;32724;51.094;6.996;2024-03-02T11:44:42;13.90;99.90
46976;DHT22;32724;51.094;6.996;2024-03-02T11:47:10;13.80;99.90
46976;DHT22;32724;51.094;6.996;2024-03-02T11:49:39;13.80;99.90
46976;DHT22;32724;51.094;6.996;2024-03-02T11:52:06;14.00;99.90
46976;DHT22;32724;51.094;6.996;2024-03-02T11:54:33;14.20;99.90
46976;DHT22;32724;51.094;6.996;2024-03-02T11:57:01;14.40;99.90
46976;DHT22;32724;51.094;6.996;2024-03-02T11:59:29;14.30;99.90
46976;DHT22;32724;51.094;6.996;2024-03-02T12:01:55;14.20;99.90
46976;DHT22;32724;51.094;6.996;2024-03-02T12:04:21;14.00;99.90
46976;DHT22;32724;51.094;6.996;2024-03-02T12:06:53;14.00;99.90
46976;DHT22;32724;51.094;6.996;2024-03-02T12:09:20;14.00;99.90
46976;DHT22;32724;51.094;6.996;2024-03-02T12:11:46;14.00;99.90
46976;DHT22;32724;51.094;6.996;2024-03-02T12:14:12;13.90;99.90
46976;DHT22;32724;51.094;6.996;2024-03-02T12:16:38;13.90;99.90
46976;DHT22;32724;51.094;6.996;2024-03-02T12:19:05;13.80;99.90
46976;DHT22;32724;51.094;6.996;2024-03-02T12:21:31;13.80;99.90
46976;DHT22;32724;51.094;6.996;2024-03-02T12:23:57;13.80;99.90
46976;DHT22;32724;51.094;6.996;2024-03-02T12:26:23;13.90;99.90
46976;DHT22;32724;51.094;6.996;2024-03-02T12:28:49;13.80;99.90
46976;DHT22;32724;51.094;6.996;2024-03-02T12:31:15;13.80;99.90
46976;DHT22;32724;51.094;6.996;2024-03-02T12:33:41;13.50;99.90
46976;DHT22;32724;51.094;6.996;2024-03-02T12:36:09;13.40;99.90
46976;DHT22;32724;51.094;6.996;2024-03-02T12:38:37;13.40;99.90
46976;DHT22;32724;51.094;6.996;2024-03-02T12:41:03;13.40;99.90
46976;DHT22;32724;51.094;6.996;2024-03-02T12:43:31;13.40;99.90
46976;DHT22;32724;51.094;6.996;2024-03-02T12:45:58;13.70;99.90
46976;DHT22;32724;51.094;6.996;2024-03-02T12:48:24;13.90;99.90
46976;DHT22;32724;51.094;6.996;2024-03-02T12:50:50;14.00;99.90
46976;DHT22;32724;51.094;6.996;2024-03-02T12:53:16;13.70;99.90
46976;DHT22;32724;51.094;6.996;2024-03-02T12:55:42;13.80;99.90
46976;DHT22;32724;51.094;6.996;2024-03-02T12:58:17;13.60;99.90
46976;DHT22;32724;51.094;6.996;2024-03-02T13:00:42;13.60;99.90
46976;DHT22;32724;51.094;6.996;2024-03-02T13:03:08;13.60;99.90
46976;DHT22;32724;51.094;6.996;2024-03-02T13:05:33;13.60;99.90
46976;DHT22;32724;51.094;6.996;2024-03-02T13:07:59;13.50;99.90
46976;DHT22;32724;51.094;6.996;2024-03-02T13:10:25;13.40;99.90
46976;DHT22;32724;51.094;6.996;2024-03-02T13:12:51;13.50;99.90
46976;DHT22;32724;51.094;6.996;2024-03-02T13:15:16;13.60;99.90
46976;DHT22;32724;51.094;6.996;2024-03-02T13:17:45;13.60;99.90
46976;DHT22;32724;51.094;6.996;2024-03-02T13:20:14;13.80;99.90
46976;DHT22;32724;51.094;6.996;2024-03-02T13:22:40;14.00;99.90
46976;DHT22;32724;51.094;6.996;2024-03-02T13:25:06;14.10;99.90
46976;DHT22;32724;51.094;6.996;2024-03-02T13:27:33;14.10;99.90
46976;DHT22;32724;51.094;6.996;2024-03-02T13:29:59;14.10;99.90
46976;DHT22;32724;51.094;6.996;2024-03-02T13:32:25;14.10;99.90
46976;DHT22;32724;51.094;6.996;2024-03-02T13:34:51;14.10;99.90
46976;DHT22;32724;51.094;6.996;2024-03-02T13:37:17;14.40;99.90
46976;DHT22;32724;51.094;6.996;2024-03-02T13:39:42;14.50;99.90
46976;DHT22;32724;51.094;6.996;2024-03-02T13:42:11;14.60;99.70
46976;DHT22;32724;51.094;6.996;2024-03-02T13:44:39;14.50;99.90
46976;DHT22;32724;51.094;6.996;2024-03-02T13:47:05;14.60;99.90
46976;DHT22;32724;51.094;6.996;2024-03-02T13:49:31;14.50;99.80
46976;DHT22;32724;51.094;6.996;2024-03-02T13:52:03;14.10;99.70
46976;DHT22;32724;51.094;6.996;2024-03-02T13:54:30;13.70;99.90
46976;DHT22;32724;51.094;6.996;2024-03-02T13:56:56;13.60;99.90
46976;DHT22;32724;51.094;6.996;2024-03-02T13:59:24;13.70;99.90
46976;DHT22;32724;51.094;6.996;2024-03-02T14:01:52;13.80;99.90
46976;DHT22;32724;51.094;6.996;2024-03-02T14:04:18;14.00;99.90
46976;DHT22;32724;51.094;6.996;2024-03-02T14:06:43;14.10;99.80
46976;DHT22;32724;51.094;6.996;2024-03-02T14:09:09;14.30;99.90
46976;DHT22;32724;51.094;6.996;2024-03-02T14:11:35;14.40;99.90
46976;DHT22;32724;51.094;6.996;2024-03-02T14:14:01;14.30;99.50
46976;DHT22;32724;51.094;6.996;2024-03-02T14:16:27;14.20;99.80
46976;DHT22;32724;51.094;6.996;2024-03-02T14:18:53;14.30;99.80
46976;DHT22;32724;51.094;6.996;2024-03-02T14:21:19;14.40;99.90
46976;DHT22;32724;51.094;6.996;2024-03-02T14:23:44;14.40;99.60
46976;DHT22;32724;51.094;6.996;2024-03-02T14:26:10;14.50;99.70
46976;DHT22;32724;51.094;6.996;2024-03-02T14:28:35;14.30;99.50
46976;DHT22;32724;51.094;6.996;2024-03-02T14:31:01;14.10;99.40
46976;DHT22;32724;51.094;6.996;2024-03-02T14:33:28;14.00;99.80
46976;DHT22;32724;51.094;6.996;2024-03-02T14:35:53;14.00;99.80
46976;DHT22;32724;51.094;6.996;2024-03-02T14:38:19;14.00;99.90
46976;DHT22;32724;51.094;6.996;2024-03-02T14:40:45;14.10;99.90
46976;DHT22;32724;51.094;6.996;2024-03-02T14:43:11;14.40;99.60
46976;DHT22;32724;51.094;6.996;2024-03-02T14:45:39;14.30;99.10
46976;DHT22;32724;51.094;6.996;2024-03-02T14:48:05;14.20;99.20
46976;DHT22;32724;51.094;6.996;2024-03-02T14:50:31;14.20;99.90
46976;DHT22;32724;51.094;6.996;2024-03-02T14:52:57;14.30;99.60
46976;DHT22;32724;51.094;6.996;2024-03-02T14:55:23;14.40;99.30
46976;DHT22;32724;51.094;6.996;2024-03-02T14:57:53;14.20;99.30
46976;DHT22;32724;51.094;6.996;2024-03-02T15:00:19;14.20;99.20
46976;DHT22;32724;51.094;6.996;2024-03-02T15:02:44;14.20;99.40
46976;DHT22;32724;51.094;6.996;2024-03-02T15:05:11;14.20;99.40
46976;DHT22;32724;51.094;6.996;2024-03-02T15:07:37;14.20;99.10
46976;DHT22;32724;51.094;6.996;2024-03-02T15:10:04;14.10;98.90
46976;DHT22;32724;51.094;6.996;2024-03-02T15:12:29;14.10;99.20
46976;DHT22;32724;51.094;6.996;2024-03-02T15:14:55;14.00;98.90
46976;DHT22;32724;51.094;6.996;2024-03-02T15:17:22;14.00;99.20
46976;DHT22;32724;51.094;6.996;2024-03-02T15:19:47;14.00;99.70
46976;DHT22;32724;51.094;6.996;2024-03-02T15:22:13;14.00;99.90
46976;DHT22;32724;51.094;6.996;2024-03-02T15:24:38;14.00;99.50
46976;DHT22;32724;51.094;6.996;2024-03-02T15:27:05;14.00;99.70
46976;DHT22;32724;51.094;6.996;2024-03-02T15:29:35;13.80;99.50
46976;DHT22;32724;51.094;6.996;2024-03-02T15:32:01;13.80;99.60
46976;DHT22;32724;51.094;6.996;2024-03-02T15:34:30;13.80;99.20
46976;DHT22;32724;51.094;6.996;2024-03-02T15:36:55;13.90;99.50
46976;DHT22;32724;51.094;6.996;2024-03-02T15:39:21;13.80;99.40
46976;DHT22;32724;51.094;6.996;2024-03-02T15:41:47;13.80;99.30
46976;DHT22;32724;51.094;6.996;2024-03-02T15:44:12;13.80;99.20
46976;DHT22;32724;51.094;6.996;2024-03-02T15:46:38;13.90;99.20